createdAt,value
2018-08-25T00:00:59.084Z,929.91
2018-08-25T00:01:58.966Z,929.95
2018-08-25T00:02:59.216Z,929.96
2018-08-25T00:03:59.048Z,929.99
2018-08-25T00:04:59.040Z,930.01
2018-08-25T00:05:59.074Z,929.99
2018-08-25T00:06:59.061Z,929.95
2018-08-25T00:07:59.110Z,929.94
2018-08-25T00:08:59.213Z,929.90
2018-08-25T00:09:59.103Z,929.87
2018-08-25T00:10:59.336Z,929.84
2018-08-25T00:11:59.120Z,929.82
2018-08-25T00:12:59.148Z,929.82
2018-08-25T00:13:59.158Z,929.83
2018-08-25T00:14:59.172Z,929.89
2018-08-25T00:15:59.362Z,929.87
2018-08-25T00:16:59.211Z,929.88
2018-08-25T00:17:59.260Z,929.87
2018-08-25T00:18:59.366Z,929.86
2018-08-25T00:19:59.262Z,929.85
2018-08-25T00:20:59.386Z,929.87
2018-08-25T00:21:59.278Z,929.82
2018-08-25T00:22:59.430Z,929.82
2018-08-25T00:23:59.333Z,929.84
2018-08-25T00:24:59.337Z,929.86
2018-08-25T00:25:59.451Z,929.85
2018-08-25T00:26:59.490Z,929.87
2018-08-25T00:27:59.596Z,929.90
2018-08-25T00:28:59.397Z,929.94
2018-08-25T00:29:59.426Z,929.92
2018-08-25T00:30:59.445Z,929.93
2018-08-25T00:31:59.571Z,929.91
2018-08-25T00:32:59.738Z,929.98
2018-08-25T00:33:59.609Z,930.02
2018-08-25T00:34:59.624Z,930.07
2018-08-25T00:35:59.517Z,930.10
2018-08-25T00:36:59.526Z,930.10
2018-08-25T00:37:59.819Z,930.09
2018-08-25T00:38:59.684Z,930.13
2018-08-25T00:39:59.579Z,930.10
2018-08-25T00:40:59.608Z,930.07
2018-08-25T00:41:59.611Z,930.05
2018-08-25T00:42:59.780Z,929.93
2018-08-25T00:43:59.636Z,929.90
2018-08-25T00:44:59.782Z,929.85
2018-08-25T00:45:59.676Z,929.78
2018-08-25T00:46:59.700Z,929.76
2018-08-25T00:47:59.976Z,929.73
2018-08-25T00:48:59.847Z,929.69
2018-08-25T00:49:59.858Z,929.68
2018-08-25T00:50:59.873Z,929.67
2018-08-25T00:51:59.894Z,929.70
2018-08-25T00:53:00.007Z,929.71
2018-08-25T00:53:59.921Z,929.75
2018-08-25T00:54:59.813Z,929.69
2018-08-25T00:55:59.830Z,929.69
2018-08-25T00:56:59.847Z,929.66
2018-08-25T00:58:00.136Z,929.64
2018-08-25T00:59:00.007Z,929.58
2018-08-25T00:59:59.892Z,929.50
2018-08-25T01:00:59.914Z,929.45
2018-08-25T01:02:00.054Z,929.41
2018-08-25T01:03:00.118Z,929.37
2018-08-25T01:03:59.982Z,929.31
2018-08-25T01:04:59.972Z,929.33
2018-08-25T01:05:59.993Z,929.32
2018-08-25T01:07:00.129Z,929.28
2018-08-25T01:08:00.075Z,929.36
2018-08-25T01:09:00.083Z,929.36
2018-08-25T01:10:00.062Z,929.39
2018-08-25T01:11:00.064Z,929.42
2018-08-25T01:12:00.214Z,929.49
2018-08-25T01:13:00.201Z,929.53
2018-08-25T01:14:00.111Z,929.56
2018-08-25T01:15:00.126Z,929.58
2018-08-25T01:16:00.146Z,929.60
2018-08-25T01:17:00.286Z,929.65
2018-08-25T01:18:00.227Z,929.63
2018-08-25T01:19:00.444Z,929.61
2018-08-25T01:20:00.338Z,929.63
2018-08-25T01:21:00.214Z,929.64
2018-08-25T01:22:00.236Z,929.67
2018-08-25T01:23:00.385Z,929.72
2018-08-25T01:24:00.599Z,929.69
2018-08-25T01:25:00.292Z,929.68
2018-08-25T01:26:00.307Z,929.69
2018-08-25T01:27:00.338Z,929.70
2018-08-25T01:28:00.464Z,929.72
2018-08-25T01:29:00.452Z,929.76
2018-08-25T01:30:00.369Z,929.75
2018-08-25T01:31:00.515Z,929.75
2018-08-25T01:32:00.520Z,929.75
2018-08-25T01:33:00.408Z,929.73
2018-08-25T01:34:00.472Z,929.75
2018-08-25T01:35:00.454Z,929.73
2018-08-25T01:36:00.586Z,929.72
2018-08-25T01:37:00.605Z,929.69
2018-08-25T01:38:00.506Z,929.66
2018-08-25T01:39:00.682Z,929.66
2018-08-25T01:40:00.531Z,929.73
2018-08-25T01:41:00.661Z,929.75
2018-08-25T01:42:00.561Z,929.72
2018-08-25T01:43:00.582Z,929.77
2018-08-25T01:44:00.859Z,929.79
2018-08-25T01:45:00.602Z,929.82
2018-08-25T01:46:00.622Z,929.89
2018-08-25T01:47:00.757Z,929.95
2018-08-25T01:48:00.652Z,930.00
2018-08-25T01:49:00.816Z,930.04
2018-08-25T01:50:00.809Z,930.08
2018-08-25T01:51:00.821Z,930.08
2018-08-25T01:52:00.743Z,930.07
2018-08-25T01:53:00.738Z,930.09
2018-08-25T01:54:00.888Z,930.05
2018-08-25T01:55:00.764Z,929.99
2018-08-25T01:56:00.770Z,929.97
2018-08-25T01:57:00.913Z,929.95
2018-08-25T01:58:00.933Z,929.95
2018-08-25T01:59:00.985Z,929.94
2018-08-25T02:00:00.839Z,929.91
2018-08-25T02:01:00.847Z,929.92
2018-08-25T02:02:00.883Z,929.93
2018-08-25T02:03:01.010Z,929.93
2018-08-25T02:04:01.056Z,929.95
2018-08-25T02:05:00.919Z,929.91
2018-08-25T02:06:00.920Z,929.90
2018-08-25T02:07:00.951Z,929.88
2018-08-25T02:08:00.965Z,929.89
2018-08-25T02:09:01.136Z,929.93
2018-08-25T02:10:00.996Z,929.99
2018-08-25T02:11:01.132Z,930.03
2018-08-25T02:12:01.147Z,930.05
2018-08-25T02:13:01.032Z,930.06
2018-08-25T02:14:01.205Z,930.03
2018-08-25T02:15:01.068Z,930.01
2018-08-25T02:16:01.209Z,930.00
2018-08-25T02:17:01.224Z,929.97
2018-08-25T02:18:01.240Z,929.97
2018-08-25T02:19:01.186Z,929.94
2018-08-25T02:20:01.146Z,929.94
2018-08-25T02:21:01.287Z,929.90
2018-08-25T02:22:01.182Z,929.96
2018-08-25T02:23:01.231Z,929.95
2018-08-25T02:24:01.483Z,929.94
2018-08-25T02:25:01.276Z,929.95
2018-08-25T02:26:01.237Z,929.94
2018-08-25T02:27:01.377Z,929.96
2018-08-25T02:28:01.316Z,929.96
2018-08-25T02:29:01.389Z,929.93
2018-08-25T02:30:01.307Z,929.93
2018-08-25T02:31:01.321Z,929.88
2018-08-25T02:32:01.324Z,929.84
2018-08-25T02:33:01.349Z,929.94
2018-08-25T02:34:01.417Z,929.89
2018-08-25T02:35:01.502Z,929.90
2018-08-25T02:36:01.388Z,929.94
2018-08-25T02:37:01.424Z,929.90
2018-08-25T02:38:01.553Z,929.91
2018-08-25T02:39:01.495Z,929.93
2018-08-25T02:40:01.448Z,929.95
2018-08-25T02:41:01.520Z,929.95
2018-08-25T02:42:01.494Z,929.99
2018-08-25T02:43:01.534Z,930.01
2018-08-25T02:44:01.601Z,930.06
2018-08-25T02:45:01.541Z,930.03
2018-08-25T02:46:01.566Z,930.00
2018-08-25T02:47:01.580Z,929.99
2018-08-25T02:48:01.575Z,929.98
2018-08-25T02:49:01.866Z,929.95
2018-08-25T02:50:01.602Z,929.94
2018-08-25T02:51:01.749Z,929.91
2018-08-25T02:52:01.760Z,929.90
2018-08-25T02:53:01.779Z,929.94
2018-08-25T02:54:01.771Z,929.94
2018-08-25T02:55:01.684Z,929.94
2018-08-25T02:56:01.828Z,929.96
2018-08-25T02:57:01.733Z,929.95
2018-08-25T02:58:01.858Z,929.97
2018-08-25T02:59:01.908Z,930.01
2018-08-25T03:00:01.762Z,930.06
2018-08-25T03:01:01.778Z,930.13
2018-08-25T03:02:01.916Z,930.22
2018-08-25T03:03:01.934Z,930.27
2018-08-25T03:04:01.980Z,930.33
2018-08-25T03:05:01.889Z,930.44
2018-08-25T03:06:01.864Z,930.49
2018-08-25T03:07:01.867Z,930.55
2018-08-25T03:08:02.006Z,930.60
2018-08-25T03:09:02.042Z,930.64
2018-08-25T03:10:01.908Z,930.70
2018-08-25T03:11:02.057Z,930.79
2018-08-25T03:12:01.952Z,931.03
2018-08-25T03:13:02.078Z,930.99
2018-08-25T03:14:02.113Z,931.01
2018-08-25T03:15:02.116Z,930.96
2018-08-25T03:16:02.000Z,930.89
2018-08-25T03:17:02.021Z,930.94
2018-08-25T03:18:02.160Z,930.83
2018-08-25T03:19:02.319Z,930.89
2018-08-25T03:20:02.185Z,930.92
2018-08-25T03:21:02.205Z,930.84
2018-08-25T03:22:02.095Z,930.99
2018-08-25T03:23:02.114Z,930.97
2018-08-25T03:24:02.289Z,931.05
2018-08-25T03:25:02.148Z,931.04
2018-08-25T03:26:02.274Z,931.11
2018-08-25T03:28:02.186Z,931.12
2018-08-25T03:29:02.241Z,931.04
2018-08-25T03:30:02.199Z,931.08
2018-08-25T03:31:02.350Z,930.55
2018-08-25T03:32:02.237Z,930.89
2018-08-25T03:33:02.376Z,931.08
2018-08-25T03:34:02.490Z,931.15
2018-08-25T03:35:02.274Z,931.15
2018-08-25T03:36:02.420Z,931.16
2018-08-25T03:37:02.310Z,931.20
2018-08-25T03:38:02.323Z,931.25
2018-08-25T03:39:02.517Z,931.22
2018-08-25T03:40:02.400Z,931.32
2018-08-25T03:41:02.479Z,931.37
2018-08-25T03:42:02.370Z,931.34
2018-08-25T03:43:02.399Z,931.38
2018-08-25T03:44:02.536Z,931.41
2018-08-25T03:45:02.427Z,931.38
2018-08-25T03:46:02.612Z,931.40
2018-08-25T03:47:02.573Z,931.34
2018-08-25T03:48:02.464Z,931.29
2018-08-25T03:49:02.487Z,931.36
2018-08-25T03:50:02.489Z,931.41
2018-08-25T03:51:02.615Z,931.35
2018-08-25T03:52:02.526Z,931.22
2018-08-25T03:53:02.660Z,931.31
2018-08-25T03:54:02.675Z,931.31
2018-08-25T03:55:02.560Z,931.26
2018-08-25T03:56:02.622Z,931.16
2018-08-25T03:57:02.716Z,931.11
2018-08-25T03:58:02.620Z,931.05
2018-08-25T03:59:02.610Z,931.12
2018-08-25T04:00:02.745Z,931.09
2018-08-25T04:01:02.652Z,931.10
2018-08-25T04:02:02.782Z,931.10
2018-08-25T04:03:02.681Z,931.16
2018-08-25T04:04:02.812Z,931.27
2018-08-25T04:05:02.791Z,931.28
2018-08-25T04:06:02.839Z,931.31
2018-08-25T04:07:02.854Z,931.56
2018-08-25T04:08:02.866Z,931.73
2018-08-25T04:09:02.759Z,931.77
2018-08-25T04:10:02.996Z,931.78
2018-08-25T04:11:02.909Z,931.84
2018-08-25T04:12:02.918Z,931.76
2018-08-25T04:13:02.831Z,931.78
2018-08-25T04:14:02.809Z,931.68
2018-08-25T04:15:03.073Z,931.77
2018-08-25T04:16:02.865Z,931.75
2018-08-25T04:17:02.866Z,931.79
2018-08-25T04:18:03.005Z,931.74
2018-08-25T04:19:02.900Z,931.73
2018-08-25T04:20:03.018Z,931.75
2018-08-25T04:21:02.971Z,931.78
2018-08-25T04:22:02.936Z,931.74
2018-08-25T04:23:02.954Z,931.83
2018-08-25T04:24:02.955Z,931.92
2018-08-25T04:25:03.197Z,931.94
2018-08-25T04:26:03.106Z,932.09
2018-08-25T04:27:03.002Z,932.13
2018-08-25T04:28:03.014Z,932.14
2018-08-25T04:29:03.147Z,932.15
2018-08-25T04:30:03.261Z,932.11
2018-08-25T04:31:03.070Z,932.10
2018-08-25T04:32:03.071Z,932.06
2018-08-25T04:33:03.079Z,931.98
2018-08-25T04:34:03.212Z,931.86
2018-08-25T04:35:03.265Z,931.80
2018-08-25T04:36:03.247Z,931.76
2018-08-25T04:37:03.258Z,931.71
2018-08-25T04:38:03.137Z,931.76
2018-08-25T04:39:03.179Z,931.76
2018-08-25T04:40:03.474Z,931.71
2018-08-25T04:41:03.196Z,931.91
2018-08-25T04:42:03.242Z,931.83
2018-08-25T04:43:03.219Z,931.77
2018-08-25T04:44:03.231Z,931.82
2018-08-25T04:45:03.298Z,931.73
2018-08-25T04:46:03.378Z,931.73
2018-08-25T04:47:03.397Z,931.71
2018-08-25T04:48:03.276Z,931.68
2018-08-25T04:49:03.298Z,931.74
2018-08-25T04:50:03.405Z,931.66
2018-08-25T04:51:03.321Z,931.67
2018-08-25T04:52:03.331Z,931.67
2018-08-25T04:53:03.348Z,931.69
2018-08-25T04:54:03.360Z,931.71
2018-08-25T04:55:03.475Z,931.74
2018-08-25T04:56:03.386Z,931.84
2018-08-25T04:57:03.524Z,931.88
2018-08-25T04:58:03.419Z,931.96
2018-08-25T04:59:03.468Z,931.95
2018-08-25T05:00:03.547Z,932.03
2018-08-25T05:01:03.475Z,932.09
2018-08-25T05:02:03.564Z,932.06
2018-08-25T05:03:03.606Z,932.01
2018-08-25T05:04:03.501Z,932.01
2018-08-25T05:05:03.616Z,931.97
2018-08-25T05:06:03.542Z,931.90
2018-08-25T05:07:03.529Z,931.83
2018-08-25T05:08:03.551Z,931.81
2018-08-25T05:09:03.564Z,931.79
2018-08-25T05:10:03.674Z,931.78
2018-08-25T05:11:03.596Z,931.81
2018-08-25T05:12:03.607Z,931.81
2018-08-25T05:13:03.738Z,931.87
2018-08-25T05:14:03.629Z,931.95
2018-08-25T05:15:03.835Z,932.01
2018-08-25T05:16:03.693Z,932.11
2018-08-25T05:17:03.794Z,932.09
2018-08-25T05:18:03.803Z,932.13
2018-08-25T05:19:03.812Z,932.10
2018-08-25T05:20:03.812Z,932.03
2018-08-25T05:21:03.717Z,931.99
2018-08-25T05:22:03.758Z,931.96
2018-08-25T05:23:03.743Z,931.97
2018-08-25T05:24:03.768Z,932.00
2018-08-25T05:25:03.771Z,931.96
2018-08-25T05:26:04.014Z,932.02
2018-08-25T05:27:03.920Z,932.08
2018-08-25T05:28:03.806Z,932.11
2018-08-25T05:29:03.942Z,932.12
2018-08-25T05:30:03.839Z,932.14
2018-08-25T05:31:03.947Z,932.19
2018-08-25T05:32:03.858Z,932.15
2018-08-25T05:33:03.997Z,932.18
2018-08-25T05:34:04.010Z,932.18
2018-08-25T05:35:04.025Z,932.17
2018-08-25T05:36:04.014Z,932.21
2018-08-25T05:37:03.930Z,932.28
2018-08-25T05:38:04.052Z,932.30
2018-08-25T05:39:03.952Z,932.32
2018-08-25T05:40:04.082Z,932.35
2018-08-25T05:41:04.146Z,932.35
2018-08-25T05:42:03.992Z,932.42
2018-08-25T05:43:04.120Z,932.44
2018-08-25T05:44:04.281Z,932.48
2018-08-25T05:45:04.032Z,932.51
2018-08-25T05:46:04.033Z,932.46
2018-08-25T05:47:04.173Z,932.41
2018-08-25T05:48:04.052Z,932.32
2018-08-25T05:49:04.174Z,932.30
2018-08-25T05:50:04.072Z,932.25
2018-08-25T05:51:04.226Z,932.19
2018-08-25T05:52:04.242Z,932.18
2018-08-25T05:53:04.115Z,932.18
2018-08-25T05:54:04.357Z,932.13
2018-08-25T05:55:04.152Z,932.10
2018-08-25T05:56:04.279Z,932.11
2018-08-25T05:57:04.179Z,932.11
2018-08-25T05:58:04.304Z,932.11
2018-08-25T05:59:04.299Z,932.09
2018-08-25T06:00:04.224Z,932.05
2018-08-25T06:01:04.208Z,932.03
2018-08-25T06:02:04.278Z,932.00
2018-08-25T06:03:04.250Z,932.01
2018-08-25T06:04:04.415Z,932.05
2018-08-25T06:05:04.394Z,932.07
2018-08-25T06:06:04.286Z,932.02
2018-08-25T06:07:04.421Z,931.99
2018-08-25T06:08:04.436Z,931.93
2018-08-25T06:09:04.422Z,931.92
2018-08-25T06:10:04.455Z,931.99
2018-08-25T06:11:04.359Z,932.05
2018-08-25T06:12:04.390Z,932.20
2018-08-25T06:13:04.493Z,932.26
2018-08-25T06:14:04.575Z,932.27
2018-08-25T06:15:04.411Z,932.24
2018-08-25T06:16:04.534Z,932.25
2018-08-25T06:17:04.418Z,932.25
2018-08-25T06:18:04.560Z,932.23
2018-08-25T06:19:04.638Z,932.25
2018-08-25T06:20:04.581Z,932.25
2018-08-25T06:21:04.459Z,932.23
2018-08-25T06:22:04.484Z,932.20
2018-08-25T06:23:04.490Z,932.16
2018-08-25T06:24:04.729Z,932.15
2018-08-25T06:25:04.637Z,932.11
2018-08-25T06:26:04.550Z,932.16
2018-08-25T06:27:04.550Z,932.20
2018-08-25T06:28:04.565Z,932.21
2018-08-25T06:29:04.840Z,932.17
2018-08-25T06:30:04.687Z,932.08
2018-08-25T06:31:04.595Z,932.02
2018-08-25T06:32:04.723Z,931.98
2018-08-25T06:33:04.617Z,931.99
2018-08-25T06:34:04.726Z,931.97
2018-08-25T06:35:04.766Z,931.95
2018-08-25T06:36:04.691Z,931.96
2018-08-25T06:37:04.663Z,931.98
2018-08-25T06:38:04.666Z,931.97
2018-08-25T06:39:04.792Z,931.95
2018-08-25T06:40:04.706Z,931.91
2018-08-25T06:41:04.751Z,931.86
2018-08-25T06:42:04.850Z,931.87
2018-08-25T06:43:04.766Z,931.85
2018-08-25T06:44:04.971Z,931.84
2018-08-25T06:45:04.770Z,931.85
2018-08-25T06:46:04.775Z,931.90
2018-08-25T06:47:04.779Z,931.95
2018-08-25T06:48:04.924Z,931.92
2018-08-25T06:49:04.925Z,931.93
2018-08-25T06:50:04.858Z,931.91
2018-08-25T06:51:04.852Z,931.91
2018-08-25T06:52:04.843Z,931.91
2018-08-25T06:53:04.862Z,931.88
2018-08-25T06:54:04.933Z,931.90
2018-08-25T06:55:04.885Z,931.93
2018-08-25T06:56:05.022Z,932.00
2018-08-25T06:57:04.907Z,931.98
2018-08-25T06:58:04.914Z,931.96
2018-08-25T06:59:05.038Z,932.01
2018-08-25T07:00:04.952Z,932.03
2018-08-25T07:01:05.080Z,932.05
2018-08-25T07:02:05.096Z,932.06
2018-08-25T07:03:04.980Z,931.98
2018-08-25T07:04:05.172Z,931.99
2018-08-25T07:05:05.137Z,931.95
2018-08-25T07:06:05.150Z,932.00
2018-08-25T07:07:05.153Z,932.06
2018-08-25T07:08:05.165Z,932.06
2018-08-25T07:09:05.119Z,932.11
2018-08-25T07:10:05.110Z,932.15
2018-08-25T07:11:05.090Z,932.23
2018-08-25T07:12:05.092Z,932.28
2018-08-25T07:13:05.226Z,932.29
2018-08-25T07:14:05.346Z,932.26
2018-08-25T07:15:05.135Z,932.29
2018-08-25T07:16:05.266Z,932.32
2018-08-25T07:17:05.144Z,932.31
2018-08-25T07:18:05.171Z,932.27
2018-08-25T07:19:05.395Z,932.20
2018-08-25T07:20:05.236Z,932.15
2018-08-25T07:21:05.326Z,932.08
2018-08-25T07:22:05.344Z,932.07
2018-08-25T07:23:05.351Z,932.01
2018-08-25T07:24:05.369Z,931.94
2018-08-25T07:25:05.302Z,931.88
2018-08-25T07:26:05.407Z,931.78
2018-08-25T07:27:05.405Z,931.71
2018-08-25T07:28:05.303Z,931.61
2018-08-25T07:29:05.407Z,931.54
2018-08-25T07:30:05.437Z,931.58
2018-08-25T07:31:05.329Z,931.63
2018-08-25T07:32:05.392Z,931.63
2018-08-25T07:33:05.339Z,931.62
2018-08-25T07:34:05.474Z,931.61
2018-08-25T07:35:05.377Z,931.68
2018-08-25T07:36:05.510Z,931.72
2018-08-25T07:37:05.521Z,931.83
2018-08-25T07:38:05.407Z,931.99
2018-08-25T07:39:05.569Z,932.03
2018-08-25T07:40:05.441Z,932.13
2018-08-25T07:41:05.576Z,932.14
2018-08-25T07:42:05.475Z,932.16
2018-08-25T07:43:05.595Z,932.23
2018-08-25T07:44:05.632Z,932.26
2018-08-25T07:45:05.580Z,932.31
2018-08-25T07:46:05.515Z,932.35
2018-08-25T07:47:05.532Z,932.47
2018-08-25T07:48:05.542Z,932.58
2018-08-25T07:49:05.604Z,932.70
2018-08-25T07:50:05.681Z,932.83
2018-08-25T07:51:05.568Z,932.92
2018-08-25T07:52:05.585Z,932.92
2018-08-25T07:53:05.591Z,932.78
2018-08-25T07:54:05.839Z,932.66
2018-08-25T07:55:05.616Z,932.68
2018-08-25T07:56:05.761Z,932.70
2018-08-25T07:57:05.648Z,932.63
2018-08-25T07:58:05.694Z,932.62
2018-08-25T07:59:05.898Z,932.59
2018-08-25T08:00:05.687Z,932.63
2018-08-25T08:01:05.685Z,932.65
2018-08-25T08:02:05.834Z,932.57
2018-08-25T08:03:05.841Z,932.52
2018-08-25T08:04:05.837Z,932.50
2018-08-25T08:05:05.868Z,932.48
2018-08-25T08:06:05.881Z,932.45
2018-08-25T08:07:05.892Z,932.36
2018-08-25T08:08:05.782Z,932.22
2018-08-25T08:09:06.073Z,932.03
2018-08-25T08:10:05.841Z,931.82
2018-08-25T08:11:05.823Z,931.59
2018-08-25T08:12:05.877Z,931.22
2018-08-25T08:13:05.854Z,930.88
2018-08-25T08:14:06.031Z,930.62
2018-08-25T08:15:05.861Z,930.34
2018-08-25T08:16:05.882Z,930.25
2018-08-25T08:17:06.016Z,930.43
2018-08-25T08:18:05.926Z,930.66
2018-08-25T08:19:06.041Z,930.76
2018-08-25T08:20:06.107Z,930.67
2018-08-25T08:21:05.937Z,930.55
2018-08-25T08:22:06.079Z,930.43
2018-08-25T08:23:06.062Z,930.27
2018-08-25T08:24:05.979Z,930.09
2018-08-25T08:25:06.109Z,929.87
2018-08-25T08:26:06.011Z,929.76
2018-08-25T08:27:06.050Z,929.61
2018-08-25T08:28:06.129Z,929.42
2018-08-25T08:29:06.075Z,929.39
2018-08-25T08:30:06.043Z,929.55
2018-08-25T08:31:06.188Z,929.63
2018-08-25T08:32:06.195Z,929.71
2018-08-25T08:33:06.466Z,929.82
2018-08-25T08:34:06.224Z,929.95
2018-08-25T08:35:06.114Z,930.16
2018-08-25T08:36:06.244Z,930.25
2018-08-25T08:37:06.141Z,930.36
2018-08-25T08:38:06.246Z,930.41
2018-08-25T08:39:06.294Z,930.44
2018-08-25T08:40:06.218Z,930.50
2018-08-25T08:41:06.184Z,930.49
2018-08-25T08:42:06.223Z,930.44
2018-08-25T08:43:06.312Z,930.52
2018-08-25T08:44:06.224Z,930.58
2018-08-25T08:45:06.239Z,930.59
2018-08-25T08:46:06.243Z,930.63
2018-08-25T08:47:06.378Z,930.68
2018-08-25T08:48:06.445Z,930.72
2018-08-25T08:49:06.411Z,930.81
2018-08-25T08:50:06.346Z,930.83
2018-08-25T08:51:06.306Z,930.87
2018-08-25T08:52:06.441Z,930.87
2018-08-25T08:53:06.550Z,930.83
2018-08-25T08:54:06.341Z,930.88
2018-08-25T08:55:06.371Z,930.85
2018-08-25T08:56:06.490Z,930.76
2018-08-25T08:57:06.511Z,930.77
2018-08-25T08:58:06.611Z,930.75
2018-08-25T08:59:06.532Z,930.73
2018-08-25T09:00:06.411Z,930.73
2018-08-25T09:01:06.566Z,930.72
2018-08-25T09:02:06.439Z,930.84
2018-08-25T09:03:06.447Z,930.81
2018-08-25T09:04:06.588Z,930.72
2018-08-25T09:05:06.603Z,930.69
2018-08-25T09:06:06.639Z,930.69
2018-08-25T09:07:06.559Z,930.70
2018-08-25T09:08:06.518Z,930.68
2018-08-25T09:09:06.651Z,930.67
2018-08-25T09:10:06.661Z,930.69
2018-08-25T09:11:06.594Z,930.70
2018-08-25T09:12:06.689Z,930.73
2018-08-25T09:13:06.713Z,930.75
2018-08-25T09:14:06.713Z,930.73
2018-08-25T09:15:06.723Z,930.72
2018-08-25T09:16:06.739Z,930.68
2018-08-25T09:17:06.747Z,930.63
2018-08-25T09:18:06.885Z,930.65
2018-08-25T09:19:06.769Z,930.65
2018-08-25T09:20:06.672Z,930.69
2018-08-25T09:21:06.799Z,930.68
2018-08-25T09:22:06.688Z,930.68
2018-08-25T09:23:06.922Z,930.67
2018-08-25T09:24:06.726Z,930.75
2018-08-25T09:25:06.735Z,930.68
2018-08-25T09:26:06.857Z,930.67
2018-08-25T09:27:06.745Z,930.69
2018-08-25T09:28:06.857Z,930.67
2018-08-25T09:29:06.894Z,930.71
2018-08-25T09:30:06.823Z,930.73
2018-08-25T09:31:06.801Z,930.82
2018-08-25T09:32:06.926Z,930.82
2018-08-25T09:33:06.861Z,930.91
2018-08-25T09:34:06.952Z,930.95
2018-08-25T09:35:06.970Z,930.98
2018-08-25T09:36:07.041Z,930.92
2018-08-25T09:37:06.883Z,930.97
2018-08-25T09:38:06.924Z,930.91
2018-08-25T09:39:06.885Z,931.00
2018-08-25T09:40:07.058Z,931.00
2018-08-25T09:41:06.917Z,930.98
2018-08-25T09:42:07.056Z,931.02
2018-08-25T09:43:07.075Z,930.98
2018-08-25T09:44:07.085Z,930.97
2018-08-25T09:45:07.141Z,931.03
2018-08-25T09:46:07.128Z,930.96
2018-08-25T09:47:07.205Z,930.91
2018-08-25T09:48:07.128Z,930.84
2018-08-25T09:49:07.138Z,930.80
2018-08-25T09:50:07.073Z,930.83
2018-08-25T09:51:07.158Z,930.82
2018-08-25T09:52:07.178Z,930.79
2018-08-25T09:53:07.065Z,930.81
2018-08-25T09:54:07.199Z,930.81
2018-08-25T09:55:07.092Z,930.86
2018-08-25T09:56:07.382Z,930.91
2018-08-25T09:57:07.239Z,930.91
2018-08-25T09:58:07.116Z,930.92
2018-08-25T09:59:07.317Z,930.93
2018-08-25T10:00:07.164Z,931.01
2018-08-25T10:01:07.167Z,931.00
2018-08-25T10:02:07.404Z,930.99
2018-08-25T10:03:07.195Z,930.98
2018-08-25T10:04:07.241Z,931.00
2018-08-25T10:05:07.254Z,931.00
2018-08-25T10:06:07.351Z,931.02
2018-08-25T10:07:07.267Z,931.02
2018-08-25T10:08:07.357Z,931.04
2018-08-25T10:09:07.395Z,931.05
2018-08-25T10:10:07.272Z,931.02
2018-08-25T10:11:07.286Z,931.01
2018-08-25T10:12:07.303Z,931.01
2018-08-25T10:13:07.546Z,930.97
2018-08-25T10:14:07.456Z,930.98
2018-08-25T10:15:07.340Z,931.03
2018-08-25T10:16:07.354Z,931.08
2018-08-25T10:17:07.490Z,931.19
2018-08-25T10:18:07.570Z,931.19
2018-08-25T10:19:07.518Z,931.15
2018-08-25T10:20:07.412Z,931.10
2018-08-25T10:21:07.427Z,931.05
2018-08-25T10:22:07.431Z,931.07
2018-08-25T10:23:07.598Z,931.11
2018-08-25T10:24:07.463Z,931.15
2018-08-25T10:25:07.593Z,931.13
2018-08-25T10:26:07.581Z,931.17
2018-08-25T10:27:07.500Z,931.18
2018-08-25T10:28:07.633Z,931.16
2018-08-25T10:29:07.724Z,931.15
2018-08-25T10:30:07.540Z,931.13
2018-08-25T10:31:07.599Z,931.14
2018-08-25T10:32:07.559Z,931.16
2018-08-25T10:33:07.700Z,931.16
2018-08-25T10:34:07.810Z,931.17
2018-08-25T10:35:07.730Z,931.14
2018-08-25T10:36:07.738Z,931.15
2018-08-25T10:37:07.637Z,931.25
2018-08-25T10:38:07.768Z,931.27
2018-08-25T10:39:07.879Z,931.25
2018-08-25T10:40:07.658Z,931.24
2018-08-25T10:41:07.807Z,931.31
2018-08-25T10:42:07.881Z,931.31
2018-08-25T10:43:07.721Z,931.30
2018-08-25T10:44:07.770Z,931.34
2018-08-25T10:45:07.855Z,931.38
2018-08-25T10:46:07.748Z,931.41
2018-08-25T10:47:07.885Z,931.52
2018-08-25T10:48:07.905Z,931.53
2018-08-25T10:49:08.059Z,931.56
2018-08-25T10:50:07.799Z,931.61
2018-08-25T10:51:07.941Z,931.64
2018-08-25T10:52:07.820Z,931.63
2018-08-25T10:53:07.841Z,931.68
2018-08-25T10:54:08.034Z,931.77
2018-08-25T10:55:07.864Z,931.78
2018-08-25T10:56:07.880Z,931.79
2018-08-25T10:57:07.935Z,931.82
2018-08-25T10:58:07.915Z,931.86
2018-08-25T10:59:08.070Z,931.84
2018-08-25T11:00:08.072Z,931.81
2018-08-25T11:01:08.094Z,931.87
2018-08-25T11:02:07.985Z,931.88
2018-08-25T11:03:08.108Z,931.84
2018-08-25T11:04:08.265Z,931.82
2018-08-25T11:05:08.019Z,931.86
2018-08-25T11:06:08.031Z,931.83
2018-08-25T11:07:08.040Z,931.85
2018-08-25T11:08:08.177Z,931.89
2018-08-25T11:09:08.117Z,931.86
2018-08-25T11:10:08.174Z,931.90
2018-08-25T11:11:08.134Z,931.96
2018-08-25T11:12:08.238Z,931.94
2018-08-25T11:13:08.120Z,931.90
2018-08-25T11:14:08.259Z,931.90
2018-08-25T11:15:08.424Z,931.82
2018-08-25T11:16:08.167Z,931.77
2018-08-25T11:17:08.179Z,931.72
2018-08-25T11:18:08.320Z,931.74
2018-08-25T11:19:08.216Z,931.74
2018-08-25T11:20:08.329Z,931.77
2018-08-25T11:21:08.248Z,931.79
2018-08-25T11:22:08.259Z,931.76
2018-08-25T11:23:08.396Z,931.76
2018-08-25T11:24:08.409Z,931.68
2018-08-25T11:25:08.400Z,931.73
2018-08-25T11:26:08.436Z,931.78
2018-08-25T11:27:08.324Z,931.76
2018-08-25T11:28:08.470Z,931.78
2018-08-25T11:29:08.412Z,931.77
2018-08-25T11:30:08.646Z,931.84
2018-08-25T11:31:08.386Z,931.85
2018-08-25T11:32:08.407Z,931.90
2018-08-25T11:33:08.408Z,931.92
2018-08-25T11:34:08.441Z,931.95
2018-08-25T11:35:08.502Z,931.96
2018-08-25T11:36:08.469Z,931.97
2018-08-25T11:37:08.502Z,932.02
2018-08-25T11:38:08.652Z,932.10
2018-08-25T11:39:08.658Z,932.14
2018-08-25T11:40:08.518Z,932.11
2018-08-25T11:41:08.536Z,932.08
2018-08-25T11:42:08.672Z,932.06
2018-08-25T11:43:08.694Z,932.06
2018-08-25T11:44:08.923Z,932.11
2018-08-25T11:45:08.875Z,932.07
2018-08-25T11:46:08.611Z,932.06
2018-08-25T11:47:08.752Z,932.16
2018-08-25T11:48:08.647Z,932.17
2018-08-25T11:49:08.656Z,932.16
2018-08-25T11:50:08.828Z,932.21
2018-08-25T11:51:08.693Z,932.15
2018-08-25T11:52:08.705Z,932.07
2018-08-25T11:53:08.846Z,932.17
2018-08-25T11:54:08.881Z,932.25
2018-08-25T11:55:09.018Z,932.22
2018-08-25T11:56:08.797Z,932.20
2018-08-25T11:57:08.775Z,932.21
2018-08-25T11:58:08.796Z,932.24
2018-08-25T11:59:08.813Z,932.25
2018-08-25T12:00:08.936Z,932.25
2018-08-25T12:01:08.963Z,932.24
2018-08-25T12:02:08.876Z,932.28
2018-08-25T12:03:08.858Z,932.36
2018-08-25T12:04:08.889Z,932.37
2018-08-25T12:05:09.171Z,932.37
2018-08-25T12:06:08.918Z,932.39
2018-08-25T12:07:08.969Z,932.47
2018-08-25T12:08:08.945Z,932.38
2018-08-25T12:09:08.970Z,932.47
2018-08-25T12:10:09.038Z,932.48
2018-08-25T12:11:08.998Z,932.51
2018-08-25T12:12:09.018Z,932.48
2018-08-25T12:13:09.175Z,932.38
2018-08-25T12:14:09.162Z,932.37
2018-08-25T12:15:09.181Z,932.31
2018-08-25T12:16:09.198Z,932.30
2018-08-25T12:17:09.091Z,932.32
2018-08-25T12:18:09.229Z,932.28
2018-08-25T12:19:09.110Z,932.34
2018-08-25T12:20:09.166Z,932.36
2018-08-25T12:21:09.153Z,932.41
2018-08-25T12:22:09.292Z,932.39
2018-08-25T12:23:09.351Z,932.46
2018-08-25T12:24:09.243Z,932.47
2018-08-25T12:25:09.212Z,932.52
2018-08-25T12:26:09.353Z,932.46
2018-08-25T12:27:09.378Z,932.49
2018-08-25T12:28:09.319Z,932.52
2018-08-25T12:29:09.279Z,932.55
2018-08-25T12:30:09.295Z,932.60